createdAt,value
2022-09-26T00:01:13.025Z,2.61
2022-09-26T00:03:42.484Z,2.65
2022-09-26T00:06:09.292Z,2.57
2022-09-26T00:08:37.714Z,2.68
2022-09-26T00:11:05.604Z,2.79
2022-09-26T00:13:34.020Z,2.55
2022-09-26T00:16:00.755Z,2.63
2022-09-26T00:18:27.311Z,2.59
2022-09-26T00:20:54.241Z,2.41
2022-09-26T00:23:20.976Z,2.39
2022-09-26T00:25:48.692Z,2.37
2022-09-26T00:28:15.885Z,2.29
2022-09-26T00:30:44.656Z,2.28
2022-09-26T00:33:12.264Z,2.29
2022-09-26T00:35:39.451Z,2.60
2022-09-26T00:38:06.143Z,2.27
2022-09-26T00:40:33.240Z,2.52
2022-09-26T00:43:00.263Z,2.42
2022-09-26T00:45:30.735Z,2.45
2022-09-26T00:48:01.279Z,2.25
2022-09-26T00:50:41.393Z,2.31
2022-09-26T00:53:12.770Z,2.16
2022-09-26T00:55:44.439Z,2.29
2022-09-26T00:58:20.805Z,2.42
2022-09-26T01:00:50.066Z,2.39
2022-09-26T01:03:19.622Z,2.19
2022-09-26T01:05:47.276Z,2.44
2022-09-26T01:08:15.767Z,2.27
2022-09-26T01:10:43.506Z,2.38
2022-09-26T01:13:10.198Z,2.48
2022-09-26T01:15:36.918Z,2.39
2022-09-26T01:18:03.765Z,2.39
2022-09-26T01:20:45.964Z,2.58
2022-09-26T01:23:21.745Z,2.59
2022-09-26T01:26:17.432Z,2.29
2022-09-26T01:29:02.877Z,2.42
2022-09-26T01:32:08.149Z,2.29
2022-09-26T01:34:54.990Z,2.19
2022-09-26T01:37:21.595Z,2.33
2022-09-26T01:39:51.424Z,2.17
2022-09-26T01:42:26.959Z,2.14
2022-09-26T01:45:13.835Z,2.33
2022-09-26T01:47:40.687Z,2.11
2022-09-26T01:50:17.369Z,2.26
2022-09-26T01:52:44.129Z,2.01
2022-09-26T01:55:18.435Z,2.11
2022-09-26T01:57:53.551Z,2.25
2022-09-26T02:00:20.604Z,2.16
2022-09-26T02:02:50.205Z,2.08
2022-09-26T02:05:20.245Z,2.35
2022-09-26T02:08:00.233Z,2.00
2022-09-26T02:10:36.855Z,2.00
2022-09-26T02:13:08.744Z,2.27
2022-09-26T02:15:37.240Z,2.07
2022-09-26T02:18:13.042Z,2.21
2022-09-26T02:20:44.010Z,2.25
2022-09-26T02:23:10.919Z,2.13
2022-09-26T02:25:37.675Z,1.99
2022-09-26T02:28:05.133Z,2.09
2022-09-26T02:30:32.185Z,2.00
2022-09-26T02:32:59.233Z,2.30
2022-09-26T02:35:46.253Z,1.96
2022-09-26T02:38:13.482Z,2.12
2022-09-26T02:41:00.356Z,2.01
2022-09-26T02:43:37.968Z,1.84
2022-09-26T02:46:07.845Z,1.94
2022-09-26T02:49:10.267Z,2.05
2022-09-26T02:52:03.000Z,2.04
2022-09-26T02:54:39.753Z,2.14
2022-09-26T02:57:12.475Z,2.29
2022-09-26T02:59:57.850Z,2.14
2022-09-26T03:02:32.689Z,2.03
2022-09-26T03:05:07.912Z,2.28
2022-09-26T03:07:44.933Z,2.11
2022-09-26T03:10:13.283Z,2.28
2022-09-26T03:12:40.053Z,2.23
2022-09-26T03:15:08.101Z,2.25
2022-09-26T03:17:37.992Z,2.53
2022-09-26T03:20:14.924Z,2.44
2022-09-26T03:22:43.707Z,2.38
2022-09-26T03:25:14.943Z,2.33
2022-09-26T03:27:46.010Z,2.36
2022-09-26T03:30:14.576Z,2.38
2022-09-26T03:32:41.713Z,2.26
2022-09-26T03:35:08.970Z,2.17
2022-09-26T03:37:37.445Z,2.35
2022-09-26T03:40:05.797Z,2.36
2022-09-26T03:42:35.296Z,2.28
2022-09-26T03:45:02.801Z,2.48
2022-09-26T03:47:30.136Z,2.35
2022-09-26T03:49:56.995Z,2.59
2022-09-26T03:52:25.022Z,2.20
2022-09-26T03:54:51.809Z,2.52
2022-09-26T03:57:18.529Z,2.30
2022-09-26T03:59:45.701Z,2.45
2022-09-26T04:02:14.202Z,2.35
2022-09-26T04:04:40.891Z,2.40
2022-09-26T04:07:07.725Z,2.36
2022-09-26T04:09:34.365Z,2.51
2022-09-26T04:12:01.074Z,2.37
2022-09-26T04:14:27.779Z,2.34
2022-09-26T04:16:54.690Z,2.52
2022-09-26T04:19:21.283Z,2.44
2022-09-26T04:21:48.302Z,2.65
2022-09-26T04:24:16.403Z,2.25
2022-09-26T04:26:44.324Z,2.36
2022-09-26T04:29:12.051Z,2.55
2022-09-26T04:31:39.500Z,2.83
2022-09-26T04:34:07.483Z,2.58
2022-09-26T04:36:34.444Z,2.35
2022-09-26T04:39:01.113Z,2.38
2022-09-26T04:41:29.055Z,2.32
2022-09-26T04:43:57.084Z,2.43
2022-09-26T04:46:30.217Z,2.58
2022-09-26T04:48:59.202Z,2.36
2022-09-26T04:51:27.562Z,2.49
2022-09-26T04:53:54.140Z,2.23
2022-09-26T04:56:22.677Z,2.35
2022-09-26T04:58:49.347Z,2.23
2022-09-26T05:01:17.663Z,2.32
2022-09-26T05:03:44.439Z,3.18
2022-09-26T05:06:12.504Z,6.96
2022-09-26T05:08:46.503Z,8.83
2022-09-26T05:11:14.278Z,8.64
2022-09-26T05:13:41.025Z,6.62
2022-09-26T05:16:11.087Z,4.59
2022-09-26T05:18:39.501Z,7.90
2022-09-26T05:21:07.634Z,7.07
2022-09-26T05:23:53.780Z,4.37
2022-09-26T05:26:20.451Z,4.30
2022-09-26T05:28:52.969Z,6.78
2022-09-26T05:31:20.823Z,4.50
2022-09-26T05:33:47.594Z,3.13
2022-09-26T05:36:14.467Z,3.22
2022-09-26T05:38:41.289Z,3.77
2022-09-26T05:41:07.911Z,4.09
2022-09-26T05:43:35.104Z,3.65
2022-09-26T05:46:06.306Z,2.94
2022-09-26T05:48:35.304Z,3.03
2022-09-26T05:51:02.884Z,3.54
2022-09-26T05:53:29.850Z,4.00
2022-09-26T05:55:56.651Z,3.33
2022-09-26T05:58:23.206Z,3.28
2022-09-26T06:00:51.177Z,4.11
2022-09-26T06:03:18.348Z,5.30
2022-09-26T06:05:45.462Z,3.50
2022-09-26T06:08:12.310Z,3.24
2022-09-26T06:10:39.254Z,3.10
2022-09-26T06:13:06.077Z,3.31
2022-09-26T06:15:32.704Z,3.35
2022-09-26T06:18:06.662Z,3.27
2022-09-26T06:20:33.929Z,3.15
2022-09-26T06:23:01.747Z,2.80
2022-09-26T06:25:29.472Z,2.67
2022-09-26T06:27:59.952Z,2.94
2022-09-26T06:30:27.248Z,2.92
2022-09-26T06:32:54.373Z,2.94
2022-09-26T06:35:21.998Z,2.96
2022-09-26T06:37:48.742Z,2.81
2022-09-26T06:40:15.731Z,2.82
2022-09-26T06:42:43.563Z,2.86
2022-09-26T06:45:12.029Z,2.82
2022-09-26T06:47:38.805Z,2.82
2022-09-26T06:50:05.626Z,2.82
2022-09-26T06:52:35.117Z,2.98
2022-09-26T06:55:03.706Z,2.98
2022-09-26T06:57:40.789Z,2.86
2022-09-26T07:00:08.989Z,2.92
2022-09-26T07:02:36.363Z,2.82
2022-09-26T07:05:04.056Z,2.88
2022-09-26T07:07:31.107Z,2.84
2022-09-26T07:09:58.090Z,2.78
2022-09-26T07:12:25.215Z,2.87
2022-09-26T07:14:53.748Z,2.85
2022-09-26T07:17:20.887Z,2.89
2022-09-26T07:19:51.011Z,2.74
2022-09-26T07:22:17.598Z,2.81
2022-09-26T07:24:46.604Z,3.02
2022-09-26T07:27:14.305Z,2.98
2022-09-26T07:29:41.088Z,3.09
2022-09-26T07:32:07.872Z,3.03
2022-09-26T07:34:34.716Z,2.89
2022-09-26T07:37:01.432Z,3.15
2022-09-26T07:39:28.146Z,3.22
2022-09-26T07:41:54.695Z,3.19
2022-09-26T07:47:26.584Z,3.14
2022-09-26T07:50:12.975Z,3.26
2022-09-26T07:52:40.538Z,3.20
2022-09-26T07:55:08.327Z,2.90
2022-09-26T08:01:18.496Z,3.25
2022-09-26T08:03:48.149Z,3.26
2022-09-26T08:06:20.406Z,3.24
2022-09-26T08:08:48.241Z,3.36
2022-09-26T08:11:17.537Z,3.04
2022-09-26T08:13:45.273Z,3.33
2022-09-26T08:16:14.824Z,3.32
2022-09-26T08:18:41.739Z,3.36
2022-09-26T08:21:08.562Z,3.12
2022-09-26T08:23:35.749Z,3.02
2022-09-26T08:26:07.243Z,3.27
2022-09-26T08:28:35.576Z,3.29
2022-09-26T08:31:05.150Z,2.93
2022-09-26T08:33:37.307Z,3.34
2022-09-26T08:36:08.597Z,3.20
2022-09-26T08:38:35.628Z,3.39
2022-09-26T08:41:21.704Z,3.09
2022-09-26T08:43:51.868Z,3.22
2022-09-26T08:46:48.024Z,3.30
2022-09-26T08:49:39.389Z,3.11
2022-09-26T08:52:22.578Z,3.69
2022-09-26T08:54:51.509Z,3.33
2022-09-26T08:57:29.603Z,3.18
2022-09-26T08:59:56.408Z,3.17
2022-09-26T09:02:26.336Z,3.51
2022-09-26T09:04:54.040Z,3.52
2022-09-26T09:07:23.255Z,3.52
2022-09-26T09:09:52.717Z,3.35
2022-09-26T09:12:23.552Z,3.71
2022-09-26T09:15:24.803Z,3.60
2022-09-26T09:18:00.242Z,3.85
2022-09-26T09:20:27.101Z,3.71
2022-09-26T09:23:09.635Z,3.59
2022-09-26T09:25:39.415Z,3.87
2022-09-26T09:28:26.292Z,3.84
2022-09-26T09:31:00.524Z,3.77
2022-09-26T09:33:38.016Z,3.65
2022-09-26T09:36:15.080Z,3.50
2022-09-26T09:38:45.409Z,3.66
2022-09-26T09:41:15.276Z,3.74
2022-09-26T09:43:54.979Z,3.77
2022-09-26T09:46:29.263Z,3.95
2022-09-26T09:49:02.074Z,3.57
2022-09-26T09:51:28.724Z,3.99
2022-09-26T09:54:12.795Z,3.63
2022-09-26T09:56:39.397Z,3.94
2022-09-26T09:59:06.073Z,3.94
2022-09-26T10:01:44.997Z,4.11
2022-09-26T10:04:38.076Z,3.88
2022-09-26T10:07:05.664Z,3.84
2022-09-26T10:09:40.303Z,3.92
2022-09-26T10:12:17.069Z,4.17
2022-09-26T10:14:52.837Z,3.75
2022-09-26T10:17:20.889Z,3.79
2022-09-26T10:19:48.019Z,3.57
2022-09-26T10:22:17.442Z,3.83
2022-09-26T10:24:47.057Z,3.64
2022-09-26T10:27:35.501Z,3.48
2022-09-26T10:30:05.313Z,3.38
2022-09-26T10:32:43.002Z,3.22
2022-09-26T10:35:19.740Z,3.12
2022-09-26T10:37:48.806Z,2.72
2022-09-26T10:40:53.232Z,2.79
2022-09-26T10:43:23.304Z,2.78
2022-09-26T10:45:54.994Z,2.54
2022-09-26T10:48:26.915Z,2.57
2022-09-26T10:51:01.950Z,2.44
2022-09-26T10:53:36.070Z,2.21
2022-09-26T10:56:13.094Z,2.07
2022-09-26T10:58:46.502Z,2.35
2022-09-26T11:01:23.349Z,2.27
2022-09-26T11:03:51.387Z,2.39
2022-09-26T11:06:40.796Z,2.29
2022-09-26T11:09:07.756Z,2.04
2022-09-26T11:11:37.275Z,2.20
2022-09-26T11:14:07.582Z,2.21
2022-09-26T11:16:43.519Z,2.34
2022-09-26T11:19:29.084Z,2.14
2022-09-26T11:22:07.415Z,2.15
2022-09-26T11:24:46.842Z,1.84
2022-09-26T11:27:23.693Z,2.05
2022-09-26T11:29:55.815Z,1.82
2022-09-26T11:32:28.695Z,1.70
2022-09-26T11:35:01.347Z,1.86
2022-09-26T11:37:36.609Z,1.77
2022-09-26T11:40:13.573Z,1.79
2022-09-26T11:42:43.329Z,1.93
2022-09-26T11:45:16.794Z,1.98
2022-09-26T11:47:58.908Z,1.81
2022-09-26T11:50:36.250Z,2.00
2022-09-26T11:53:09.545Z,2.15
2022-09-26T11:55:55.441Z,2.10
2022-09-26T11:58:22.076Z,2.04
2022-09-26T12:00:48.704Z,2.13
2022-09-26T12:03:15.799Z,1.97
2022-09-26T12:05:49.054Z,2.10
2022-09-26T12:08:15.867Z,2.12
2022-09-26T12:10:57.471Z,1.93
2022-09-26T12:13:35.112Z,2.07
2022-09-26T12:16:09.664Z,2.01
2022-09-26T12:18:43.657Z,2.00
2022-09-26T12:21:18.874Z,1.96
2022-09-26T12:23:48.841Z,2.15
2022-09-26T12:26:28.840Z,2.22
2022-09-26T12:29:11.138Z,2.14
2022-09-26T12:31:56.623Z,2.10
2022-09-26T12:34:37.879Z,2.27
2022-09-26T12:37:04.525Z,2.17
2022-09-26T12:39:31.156Z,2.11
2022-09-26T12:42:16.554Z,2.20
2022-09-26T12:44:49.304Z,2.39
2022-09-26T12:47:15.946Z,2.44
2022-09-26T12:49:58.581Z,2.10
2022-09-26T12:52:43.970Z,2.01
2022-09-26T12:55:13.625Z,2.20
2022-09-26T12:57:57.275Z,2.38
2022-09-26T13:00:25.061Z,2.25
2022-09-26T13:03:10.321Z,2.47
2022-09-26T13:05:52.136Z,2.42
2022-09-26T13:08:32.566Z,2.21
2022-09-26T13:11:18.845Z,1.91
2022-09-26T13:14:06.202Z,1.94
2022-09-26T13:16:46.774Z,2.17
2022-09-26T13:19:23.730Z,2.09
2022-09-26T13:22:01.877Z,2.32
2022-09-26T13:24:54.706Z,2.45
2022-09-26T13:27:58.171Z,2.68
2022-09-26T13:30:28.283Z,2.44
2022-09-26T13:33:00.793Z,2.59
2022-09-26T13:35:29.075Z,3.15
2022-09-26T13:38:00.242Z,2.98
2022-09-26T13:40:40.013Z,2.71
2022-09-26T13:43:21.626Z,3.33
2022-09-26T13:46:00.249Z,3.05
2022-09-26T13:48:43.026Z,3.29
2022-09-26T13:51:29.961Z,3.61
2022-09-26T13:54:00.132Z,3.47
2022-09-26T13:56:30.927Z,3.73
2022-09-26T13:59:21.351Z,3.27
2022-09-26T14:02:06.743Z,3.74
2022-09-26T14:04:35.114Z,3.81
2022-09-26T14:07:29.905Z,4.02
2022-09-26T14:10:05.167Z,4.03
2022-09-26T14:12:52.225Z,4.67
2022-09-26T14:15:21.134Z,3.86
2022-09-26T14:17:47.757Z,4.40
2022-09-26T14:20:25.350Z,4.19
2022-09-26T14:22:54.411Z,4.30
2022-09-26T14:25:40.031Z,4.46
2022-09-26T14:28:32.015Z,4.64
2022-09-26T14:31:09.097Z,4.62
2022-09-26T14:33:35.833Z,4.61
2022-09-26T14:36:21.388Z,4.56
2022-09-26T14:38:50.650Z,4.10
2022-09-26T14:41:19.874Z,4.02
2022-09-26T14:43:49.395Z,3.95
2022-09-26T14:46:19.243Z,4.23
2022-09-26T14:48:46.438Z,4.26
2022-09-26T14:51:15.732Z,4.15
2022-09-26T14:53:54.074Z,4.33
2022-09-26T14:56:29.505Z,3.88
2022-09-26T14:59:15.076Z,4.73
2022-09-26T15:01:43.633Z,5.04
2022-09-26T15:04:16.602Z,5.10
2022-09-26T15:06:46.881Z,5.13
2022-09-26T15:09:38.512Z,4.92
2022-09-26T15:12:28.005Z,4.70
2022-09-26T15:15:14.033Z,4.41
2022-09-26T15:17:46.414Z,5.12
2022-09-26T15:20:16.967Z,5.12
2022-09-26T15:22:44.609Z,4.28
2022-09-26T15:25:22.944Z,4.65
2022-09-26T15:27:53.902Z,4.18
2022-09-26T15:30:27.183Z,3.89
2022-09-26T15:32:58.297Z,3.86
2022-09-26T15:35:27.210Z,3.02
2022-09-26T15:38:01.641Z,3.27
2022-09-26T15:40:29.492Z,3.57
2022-09-26T15:43:22.483Z,3.24
2022-09-26T15:45:58.287Z,3.25
2022-09-26T15:48:25.287Z,2.95
2022-09-26T15:50:54.539Z,3.39
2022-09-26T15:53:21.059Z,3.29
2022-09-26T15:55:50.687Z,3.95
2022-09-26T15:58:23.368Z,3.86
2022-09-26T16:00:52.025Z,3.93
2022-09-26T16:03:24.906Z,3.76
2022-09-26T16:05:52.829Z,3.53
2022-09-26T16:08:22.622Z,3.74
2022-09-26T16:10:57.315Z,3.80
2022-09-26T16:13:25.922Z,3.36
2022-09-26T16:16:03.829Z,3.57
2022-09-26T16:18:37.198Z,3.25
2022-09-26T16:21:17.362Z,3.14
2022-09-26T16:23:44.712Z,2.84
2022-09-26T16:26:22.094Z,3.38
2022-09-26T16:28:53.029Z,3.28
2022-09-26T16:31:24.509Z,3.19
2022-09-26T16:33:53.280Z,2.83
2022-09-26T16:36:20.026Z,3.02
2022-09-26T16:38:52.019Z,3.01
2022-09-26T16:41:42.051Z,3.18
2022-09-26T16:44:36.586Z,3.20
2022-09-26T16:47:06.162Z,3.48
2022-09-26T16:49:34.507Z,3.39
2022-09-26T16:52:19.219Z,3.19
2022-09-26T16:54:45.871Z,3.27
2022-09-26T16:57:18.637Z,3.30
2022-09-26T16:59:45.377Z,2.90
2022-09-26T17:02:12.198Z,2.66
2022-09-26T17:04:39.061Z,2.89
2022-09-26T17:07:13.332Z,3.75
2022-09-26T17:09:42.376Z,2.68
2022-09-26T17:12:18.204Z,2.96
2022-09-26T17:14:48.210Z,2.97
2022-09-26T17:17:17.845Z,2.71
2022-09-26T17:19:47.614Z,3.04
2022-09-26T17:22:19.442Z,3.06
2022-09-26T17:24:48.089Z,3.40
2022-09-26T17:27:16.828Z,3.56
2022-09-26T17:29:45.748Z,3.79
2022-09-26T17:32:15.853Z,3.52
2022-09-26T17:34:43.311Z,4.11
2022-09-26T17:37:14.457Z,4.01
2022-09-26T17:39:41.162Z,4.61
2022-09-26T17:42:07.753Z,4.76
2022-09-26T17:44:37.278Z,3.93
2022-09-26T17:47:05.720Z,4.32
2022-09-26T17:49:34.976Z,4.47
2022-09-26T17:52:03.488Z,3.87
2022-09-26T17:54:42.746Z,3.50
2022-09-26T17:57:19.104Z,3.62
2022-09-26T17:59:45.860Z,3.18
2022-09-26T18:02:24.322Z,3.27
2022-09-26T18:04:53.862Z,3.27
2022-09-26T18:07:22.250Z,3.80
2022-09-26T18:09:51.481Z,3.99
2022-09-26T18:12:21.574Z,3.13
2022-09-26T18:14:49.723Z,2.95
2022-09-26T18:17:17.989Z,3.08
2022-09-26T18:19:45.275Z,2.89
2022-09-26T18:22:16.002Z,2.98
2022-09-26T18:24:45.369Z,3.30
2022-09-26T18:27:14.489Z,2.95
2022-09-26T18:29:42.854Z,3.87
2022-09-26T18:32:24.648Z,5.27
2022-09-26T18:34:51.825Z,7.60
2022-09-26T18:37:18.574Z,7.20
2022-09-26T18:39:45.368Z,5.58
2022-09-26T18:42:17.576Z,3.35
2022-09-26T18:44:44.296Z,2.24
2022-09-26T18:47:14.235Z,2.11
2022-09-26T18:49:41.285Z,2.30
2022-09-26T18:52:12.853Z,2.11
2022-09-26T18:54:41.791Z,1.97
2022-09-26T18:57:27.128Z,2.27
2022-09-26T18:59:54.007Z,2.43
2022-09-26T19:02:26.782Z,2.43
2022-09-26T19:04:56.488Z,2.24
2022-09-26T19:07:23.750Z,2.64
2022-09-26T19:09:50.759Z,2.87
2022-09-26T19:12:17.538Z,2.74
2022-09-26T19:14:44.841Z,3.00
2022-09-26T19:17:12.343Z,2.97
2022-09-26T19:19:39.110Z,2.71
2022-09-26T19:22:15.260Z,2.71
2022-09-26T19:24:46.817Z,2.80
2022-09-26T19:27:39.440Z,2.96
2022-09-26T19:30:08.147Z,2.70
2022-09-26T19:32:43.281Z,3.84
2022-09-26T19:35:19.187Z,3.24
2022-09-26T19:37:45.878Z,2.54
2022-09-26T19:40:14.349Z,2.85
2022-09-26T19:42:42.360Z,3.31
2022-09-26T19:45:09.766Z,2.70
2022-09-26T19:47:39.278Z,2.86
2022-09-26T19:50:06.528Z,3.22
2022-09-26T19:52:33.209Z,2.37
2022-09-26T19:55:01.248Z,2.41
2022-09-26T19:57:27.987Z,2.28
2022-09-26T19:59:54.493Z,3.76
2022-09-26T20:02:24.981Z,3.68
2022-09-26T20:04:52.044Z,2.55
2022-09-26T20:07:20.066Z,2.80
2022-09-26T20:09:46.932Z,2.64
2022-09-26T20:12:14.081Z,2.99
2022-09-26T20:14:40.931Z,2.89
2022-09-26T20:17:16.579Z,2.55
2022-09-26T20:19:46.031Z,2.30
2022-09-26T20:22:21.121Z,2.28
2022-09-26T20:24:50.108Z,2.85
2022-09-26T20:27:28.108Z,2.35
2022-09-26T20:30:13.947Z,2.60
2022-09-26T20:32:41.511Z,3.14
2022-09-26T20:35:11.256Z,4.17
2022-09-26T20:37:40.585Z,2.92
2022-09-26T20:40:14.931Z,3.33
2022-09-26T20:42:45.219Z,3.29
2022-09-26T20:45:16.907Z,3.05
2022-09-26T20:47:45.703Z,2.48
2022-09-26T20:50:18.299Z,2.33
2022-09-26T20:52:45.336Z,2.08
2022-09-26T20:55:19.912Z,2.04
2022-09-26T20:57:47.949Z,1.87
2022-09-26T21:00:15.849Z,2.20
2022-09-26T21:02:42.804Z,2.43
2022-09-26T21:05:18.487Z,1.95
2022-09-26T21:07:45.442Z,2.38
2022-09-26T21:10:21.512Z,2.13
2022-09-26T21:12:48.754Z,2.10
2022-09-26T21:15:15.432Z,1.94
2022-09-26T21:17:44.180Z,2.15
2022-09-26T21:20:18.682Z,1.99
2022-09-26T21:22:45.366Z,1.90
2022-09-26T21:25:16.913Z,2.13
2022-09-26T21:27:45.017Z,2.11
2022-09-26T21:30:18.364Z,2.16
2022-09-26T21:32:53.503Z,2.66
2022-09-26T21:35:22.630Z,2.40
2022-09-26T21:37:51.614Z,2.41
2022-09-26T21:40:20.052Z,2.38
2022-09-26T21:42:51.232Z,2.14
2022-09-26T21:45:20.491Z,1.96
2022-09-26T21:47:49.714Z,1.85
2022-09-26T21:50:16.360Z,1.89
2022-09-26T21:52:50.342Z,1.79
2022-09-26T21:55:21.607Z,1.99
2022-09-26T21:57:52.563Z,1.83
2022-09-26T22:00:19.271Z,1.61
2022-09-26T22:02:46.167Z,1.61
2022-09-26T22:05:13.299Z,2.10
2022-09-26T22:07:40.237Z,1.37
2022-09-26T22:10:07.234Z,1.96
2022-09-26T22:12:33.902Z,1.42
2022-09-26T22:15:00.620Z,1.37
2022-09-26T22:17:27.389Z,1.37
2022-09-26T22:19:53.897Z,1.58
2022-09-26T22:22:21.667Z,1.76
2022-09-26T22:24:48.390Z,1.54
2022-09-26T22:27:15.245Z,1.62
2022-09-26T22:29:41.814Z,1.58
2022-09-26T22:32:08.711Z,1.55
2022-09-26T22:34:35.247Z,1.40
2022-09-26T22:37:01.872Z,1.45
2022-09-26T22:39:28.426Z,1.39
2022-09-26T22:41:55.483Z,1.41
2022-09-26T22:44:22.329Z,1.51
2022-09-26T22:46:48.961Z,1.51
2022-09-26T22:49:15.639Z,1.43
2022-09-26T22:51:42.531Z,1.80
2022-09-26T22:54:09.208Z,1.47
2022-09-26T22:56:35.810Z,1.54
2022-09-26T22:59:03.422Z,1.62
2022-09-26T23:01:30.058Z,1.34
2022-09-26T23:03:59.006Z,1.57
2022-09-26T23:06:26.255Z,1.34
2022-09-26T23:08:53.239Z,1.39
2022-09-26T23:11:20.976Z,1.27
2022-09-26T23:13:50.036Z,1.61
2022-09-26T23:16:17.985Z,1.49
2022-09-26T23:18:45.053Z,1.58
2022-09-26T23:21:13.013Z,1.30
2022-09-26T23:23:42.323Z,1.20
2022-09-26T23:26:14.712Z,1.25
2022-09-26T23:28:41.460Z,1.27
2022-09-26T23:31:09.674Z,1.38
2022-09-26T23:33:37.052Z,1.30
2022-09-26T23:36:04.540Z,1.41
2022-09-26T23:38:31.367Z,1.15
2022-09-26T23:40:58.026Z,1.48
2022-09-26T23:43:24.730Z,1.39
2022-09-26T23:45:51.401Z,1.47
2022-09-26T23:48:18.209Z,1.49
2022-09-26T23:50:45.910Z,1.45
2022-09-26T23:53:12.763Z,1.24
2022-09-26T23:55:39.458Z,1.49
2022-09-26T23:58:06.410Z,1.40
